Time;durP1;ratioP1;P1;durP2;ratioP2;P2;SDS_P1;SDS_P2;PMS_P1;PMS_P2;Temp;Humidity;BMP_temperature;BMP_pressure;BME280_temperature;BME280_humidity;BME280_pressure;Samples;Min_cycle;Max_cycle;Signal;HPM_P1;HPM_P2
2023/03/05 00:01:14;;;;;;;39.75;17.00;;;;;;;;;;4997650;28;20052;-87
2023/03/05 00:03:41;;;;;;;34.67;16.40;;;;;;;;;;4997315;28;20050;-87
2023/03/05 00:06:07;;;;;;;39.92;15.93;;;;;;;;;;4997148;28;20038;-87
2023/03/05 00:08:33;;;;;;;36.78;16.58;;;;;;;;;;4996410;28;20384;-86
2023/03/05 00:11:01;;;;;;;40.40;16.92;;;;;;;;;;4998413;28;20042;-85
2023/03/05 00:13:27;;;;;;;37.60;16.85;;;;;;;;;;4999216;28;20041;-84
2023/03/05 00:15:52;;;;;;;38.15;17.30;;;;;;;;;;5000598;28;20034;-86
2023/03/05 00:18:18;;;;;;;45.53;18.05;;;;;;;;;;4997074;28;20034;-86
2023/03/05 00:20:44;;;;;;;41.53;17.92;;;;;;;;;;4994971;28;20030;-86
2023/03/05 00:23:10;;;;;;;43.22;17.25;;;;;;;;;;4996358;28;20053;-87
2023/03/05 00:25:36;;;;;;;41.13;17.85;;;;;;;;;;4994265;28;20026;-87
2023/03/05 00:28:02;;;;;;;39.08;17.42;;;;;;;;;;4995544;28;20517;-84
2023/03/05 00:30:29;;;;;;;39.25;18.02;;;;;;;;;;4994301;28;20033;-85
2023/03/05 00:32:54;;;;;;;43.33;17.17;;;;;;;;;;4988385;28;20094;-87
2023/03/05 00:35:20;;;;;;;41.95;17.65;;;;;;;;;;4996413;28;20038;-86
2023/03/05 00:37:47;;;;;;;38.33;17.13;;;;;;;;;;4995448;28;20049;-86
2023/03/05 00:40:13;;;;;;;42.33;17.30;;;;;;;;;;4994711;28;20030;-85
2023/03/05 00:42:38;;;;;;;38.55;16.88;;;;;;;;;;4994177;28;20034;-86
2023/03/05 00:45:08;;;;;;;34.95;16.60;;;;;;;;;;5023805;23;20038;-86
2023/03/05 00:47:49;;;;;;;44.42;18.38;;;;;;;;;;5015591;28;20057;-85
2023/03/05 00:50:32;;;;;;;46.50;17.83;;;;;;;;;;4998285;28;20045;-85
2023/03/05 00:53:03;;;;;;;40.30;17.23;;;;;;;;;;4998341;28;20060;-87
2023/03/05 00:55:31;;;;;;;41.42;18.33;;;;;;;;;;5013241;28;20026;-86
2023/03/05 00:58:01;;;;;;;47.10;18.25;;;;;;;;;;5016017;28;20038;-86
2023/03/05 01:00:30;;;;;;;41.20;18.35;;;;;;;;;;4999442;28;20044;-86
2023/03/05 01:02:59;;;;;;;39.63;17.58;;;;;;;;;;4998308;28;20403;-85
2023/03/05 01:05:25;;;;;;;37.95;18.15;;;;;;;;;;5024849;23;20506;-80
2023/03/05 01:07:54;;;;;;;42.72;17.27;;;;;;;;;;5033049;28;20045;-80
2023/03/05 01:10:22;;;;;;;37.55;17.35;;;;;;;;;;5033215;28;20035;-81
2023/03/05 01:12:48;;;;;;;42.45;17.85;;;;;;;;;;5016042;28;20047;-81
2023/03/05 01:15:14;;;;;;;42.60;17.85;;;;;;;;;;5032843;28;20120;-80
2023/03/05 01:17:39;;;;;;;42.40;17.95;;;;;;;;;;5015434;28;20076;-80
2023/03/05 01:20:06;;;;;;;42.88;18.58;;;;;;;;;;5015429;28;20065;-80
2023/03/05 01:22:32;;;;;;;43.15;18.58;;;;;;;;;;5033354;28;20397;-81
2023/03/05 01:24:57;;;;;;;41.50;19.00;;;;;;;;;;5014974;28;20037;-80
2023/03/05 01:27:23;;;;;;;42.20;18.40;;;;;;;;;;5033284;28;20071;-80
2023/03/05 01:29:48;;;;;;;40.00;18.23;;;;;;;;;;5016037;28;20048;-80
2023/03/05 01:32:14;;;;;;;41.10;18.13;;;;;;;;;;5015923;28;20040;-80
2023/03/05 01:34:40;;;;;;;44.03;18.08;;;;;;;;;;5032253;28;20036;-80
2023/03/05 01:37:07;;;;;;;41.22;18.25;;;;;;;;;;5017254;28;20441;-80
2023/03/05 01:39:33;;;;;;;45.28;18.42;;;;;;;;;;5033107;28;20037;-79
2023/03/05 01:41:58;;;;;;;40.88;18.02;;;;;;;;;;5018972;28;20041;-80
2023/03/05 01:44:27;;;;;;;39.47;18.70;;;;;;;;;;5002469;28;20034;-79
2023/03/05 01:46:53;;;;;;;45.35;19.23;;;;;;;;;;5037253;28;20041;-79
2023/03/05 01:49:21;;;;;;;40.25;17.58;;;;;;;;;;5038433;28;20065;-80
2023/03/05 01:51:53;;;;;;;44.60;18.13;;;;;;;;;;5037101;28;20029;-80
2023/03/05 01:54:23;;;;;;;42.05;17.90;;;;;;;;;;5018085;28;20116;-79
2023/03/05 01:56:51;;;;;;;43.33;18.42;;;;;;;;;;5001727;28;20017;-79
2023/03/05 01:59:20;;;;;;;47.90;19.25;;;;;;;;;;5018488;28;20041;-79
2023/03/05 02:01:51;;;;;;;44.97;18.45;;;;;;;;;;5018218;28;20083;-79
2023/03/05 02:04:19;;;;;;;46.53;18.35;;;;;;;;;;5035263;28;20044;-80
2023/03/05 02:06:46;;;;;;;47.63;18.75;;;;;;;;;;5017819;28;20026;-79
2023/03/05 02:09:12;;;;;;;43.35;18.85;;;;;;;;;;5018335;28;20045;-79
2023/03/05 02:11:38;;;;;;;37.95;17.55;;;;;;;;;;5035622;28;20044;-80
2023/03/05 02:14:05;;;;;;;41.75;18.20;;;;;;;;;;5035222;28;20041;-80
2023/03/05 02:16:35;;;;;;;40.90;18.17;;;;;;;;;;5035327;28;20525;-79
2023/03/05 02:19:05;;;;;;;44.92;18.38;;;;;;;;;;5017209;28;20029;-79
2023/03/05 02:21:43;;;;;;;45.13;18.80;;;;;;;;;;5035870;28;20553;-80
2023/03/05 02:24:11;;;;;;;36.78;16.67;;;;;;;;;;5018447;28;20033;-79
2023/03/05 02:26:38;;;;;;;42.15;17.80;;;;;;;;;;5037360;28;20021;-80
2023/03/05 02:29:06;;;;;;;39.47;17.70;;;;;;;;;;5019556;28;20111;-79
2023/03/05 02:31:32;;;;;;;40.33;18.73;;;;;;;;;;5019313;28;20041;-80
2023/03/05 02:33:59;;;;;;;52.50;19.40;;;;;;;;;;5039181;28;20040;-79
2023/03/05 02:36:25;;;;;;;48.75;18.30;;;;;;;;;;5022866;28;20500;-79
2023/03/05 02:38:52;;;;;;;41.10;17.67;;;;;;;;;;5040810;28;20393;-81
2023/03/05 02:41:18;;;;;;;41.22;18.08;;;;;;;;;;5039038;28;20032;-79
2023/03/05 02:43:44;;;;;;;41.60;17.85;;;;;;;;;;5023126;28;20037;-80
2023/03/05 02:46:10;;;;;;;53.95;18.52;;;;;;;;;;5022817;28;20498;-79
2023/03/05 02:48:37;;;;;;;43.83;18.17;;;;;;;;;;5041887;28;20033;-79
2023/03/05 02:51:04;;;;;;;43.97;17.90;;;;;;;;;;5023020;28;20036;-80
2023/03/05 02:53:29;;;;;;;41.63;18.35;;;;;;;;;;5023810;28;20056;-79
2023/03/05 02:55:55;;;;;;;39.10;17.65;;;;;;;;;;5040582;28;20326;-80
2023/03/05 02:58:21;;;;;;;41.78;18.55;;;;;;;;;;5039078;28;20045;-80
2023/03/05 03:00:46;;;;;;;39.75;17.98;;;;;;;;;;5038798;28;20025;-80
2023/03/05 03:03:12;;;;;;;44.35;18.98;;;;;;;;;;5022819;28;20110;-79
2023/03/05 03:05:38;;;;;;;43.08;18.65;;;;;;;;;;5022403;28;20383;-80
2023/03/05 03:08:04;;;;;;;48.38;18.00;;;;;;;;;;5022890;28;20103;-79
2023/03/05 03:10:29;;;;;;;45.13;18.50;;;;;;;;;;5022877;28;20018;-80
2023/03/05 03:12:55;;;;;;;39.10;16.95;;;;;;;;;;5022499;28;20501;-80
2023/03/05 03:15:20;;;;;;;43.22;18.77;;;;;;;;;;5038519;28;20104;-80
2023/03/05 03:17:46;;;;;;;35.90;16.88;;;;;;;;;;5037032;28;20040;-79
2023/03/05 03:20:15;;;;;;;40.47;18.17;;;;;;;;;;5021136;28;20048;-79
2023/03/05 03:22:42;;;;;;;52.08;21.63;;;;;;;;;;5038923;28;20045;-79
2023/03/05 03:25:09;;;;;;;42.28;19.23;;;;;;;;;;5037372;28;20025;-79
2023/03/05 03:27:35;;;;;;;43.05;18.48;;;;;;;;;;5020955;28;20046;-80
2023/03/05 03:30:03;;;;;;;46.55;19.33;;;;;;;;;;5038664;28;20026;-80
2023/03/05 03:32:29;;;;;;;42.03;18.15;;;;;;;;;;5038899;28;20037;-80
2023/03/05 03:34:55;;;;;;;40.58;17.80;;;;;;;;;;5038039;28;20041;-80
2023/03/05 03:37:21;;;;;;;43.30;18.30;;;;;;;;;;5037561;28;20116;-79
2023/03/05 03:39:46;;;;;;;48.33;19.30;;;;;;;;;;5038340;28;20052;-79
2023/03/05 03:42:11;;;;;;;46.80;19.52;;;;;;;;;;5037881;28;20068;-80
2023/03/05 03:44:37;;;;;;;53.25;21.13;;;;;;;;;;5036591;28;20053;-80
2023/03/05 03:47:02;;;;;;;48.45;19.77;;;;;;;;;;5038493;28;20493;-79
2023/03/05 03:49:28;;;;;;;48.63;19.73;;;;;;;;;;5020472;28;20038;-80
2023/03/05 03:51:54;;;;;;;44.60;19.27;;;;;;;;;;5037914;28;20038;-80
2023/03/05 03:54:20;;;;;;;46.47;19.42;;;;;;;;;;5036239;28;20088;-79
2023/03/05 03:56:46;;;;;;;44.53;19.25;;;;;;;;;;5038567;28;20040;-80
2023/03/05 03:59:12;;;;;;;44.05;19.30;;;;;;;;;;5036893;28;20033;-80
2023/03/05 04:01:38;;;;;;;45.63;18.73;;;;;;;;;;5036225;28;20038;-79
2023/03/05 04:04:04;;;;;;;43.17;19.17;;;;;;;;;;5033864;28;20038;-80
2023/03/05 04:06:30;;;;;;;41.95;18.77;;;;;;;;;;5019734;28;20036;-80
2023/03/05 04:08:56;;;;;;;44.45;18.75;;;;;;;;;;5035803;28;20060;-80
2023/03/05 04:11:22;;;;;;;50.40;19.17;;;;;;;;;;5035483;28;20674;-80
2023/03/05 04:13:48;;;;;;;42.08;17.52;;;;;;;;;;5017365;28;20406;-81
2023/03/05 04:16:15;;;;;;;43.92;18.52;;;;;;;;;;5017004;28;20064;-80
2023/03/05 04:18:40;;;;;;;43.17;18.80;;;;;;;;;;5001487;28;20064;-79
2023/03/05 04:21:06;;;;;;;43.92;19.08;;;;;;;;;;5017214;28;20170;-80
2023/03/05 04:23:32;;;;;;;41.38;17.70;;;;;;;;;;5035088;28;20091;-81
2023/03/05 04:25:58;;;;;;;48.92;19.33;;;;;;;;;;5035463;28;20068;-81
2023/03/05 04:28:23;;;;;;;47.17;18.90;;;;;;;;;;5034726;28;20072;-79
2023/03/05 04:30:49;;;;;;;44.15;18.20;;;;;;;;;;5037164;28;20036;-79
2023/03/05 04:33:15;;;;;;;43.72;18.67;;;;;;;;;;5034297;28;20107;-80
2023/03/05 04:35:40;;;;;;;42.55;19.10;;;;;;;;;;5034180;28;20466;-80
2023/03/05 04:38:06;;;;;;;51.10;19.63;;;;;;;;;;5034408;28;20041;-81
2023/03/05 04:40:32;;;;;;;47.50;19.80;;;;;;;;;;5034771;28;20052;-81
2023/03/05 04:42:57;;;;;;;46.70;19.20;;;;;;;;;;5035178;28;20060;-81
2023/03/05 04:45:23;;;;;;;48.00;19.35;;;;;;;;;;5016672;28;20040;-81
2023/03/05 04:47:48;;;;;;;49.35;19.83;;;;;;;;;;5034462;28;20506;-81
2023/03/05 04:50:14;;;;;;;44.75;18.73;;;;;;;;;;5016731;28;20025;-80
2023/03/05 04:52:41;;;;;;;49.33;19.50;;;;;;;;;;5034965;28;20034;-80
2023/03/05 04:55:08;;;;;;;46.97;19.33;;;;;;;;;;5016816;28;20496;-80
2023/03/05 04:57:34;;;;;;;47.75;18.83;;;;;;;;;;5017100;28;20025;-81
2023/03/05 04:59:59;;;;;;;47.63;18.63;;;;;;;;;;5035011;28;20112;-81
2023/03/05 05:02:25;;;;;;;44.20;19.00;;;;;;;;;;5017253;28;20067;-82
2023/03/05 05:04:52;;;;;;;50.33;18.95;;;;;;;;;;5016182;28;20045;-80
2023/03/05 05:07:17;;;;;;;46.17;18.95;;;;;;;;;;5034108;28;20107;-80
2023/03/05 05:09:43;;;;;;;44.50;19.23;;;;;;;;;;5033399;28;20441;-81
2023/03/05 05:12:09;;;;;;;49.70;19.30;;;;;;;;;;5000567;28;20063;-80
2023/03/05 05:14:35;;;;;;;50.53;20.05;;;;;;;;;;5034316;28;20042;-81
2023/03/05 05:17:03;;;;;;;48.75;20.92;;;;;;;;;;5034658;28;20033;-80
2023/03/05 05:19:33;;;;;;;44.45;19.35;;;;;;;;;;5017430;28;20040;-81
2023/03/05 05:21:59;;;;;;;52.08;20.17;;;;;;;;;;5016930;28;20040;-81
2023/03/05 05:24:24;;;;;;;48.85;19.95;;;;;;;;;;5033256;28;20146;-80
2023/03/05 05:26:50;;;;;;;47.85;19.42;;;;;;;;;;5016825;28;20413;-80
2023/03/05 05:29:16;;;;;;;47.60;18.52;;;;;;;;;;5034721;28;20048;-81
2023/03/05 05:31:41;;;;;;;48.97;19.23;;;;;;;;;;5034523;28;20448;-80
2023/03/05 05:34:07;;;;;;;46.88;19.73;;;;;;;;;;5034572;28;20033;-81
2023/03/05 05:36:32;;;;;;;41.75;18.83;;;;;;;;;;5035286;28;20063;-80
2023/03/05 05:38:57;;;;;;;48.25;19.63;;;;;;;;;;5035199;28;20071;-81
2023/03/05 05:41:23;;;;;;;48.05;19.52;;;;;;;;;;5034406;28;20057;-81
2023/03/05 05:43:49;;;;;;;49.42;19.70;;;;;;;;;;5017285;28;20522;-81
2023/03/05 05:46:17;;;;;;;49.28;20.73;;;;;;;;;;5034492;28;20532;-80
2023/03/05 05:48:43;;;;;;;45.42;19.08;;;;;;;;;;5035069;28;20053;-81
2023/03/05 05:51:14;;;;;;;46.65;18.35;;;;;;;;;;5035779;28;20033;-80
2023/03/05 05:53:41;;;;;;;46.42;19.50;;;;;;;;;;5017964;28;20048;-80
2023/03/05 05:56:08;;;;;;;48.83;20.85;;;;;;;;;;5034092;28;20044;-81
2023/03/05 05:58:35;;;;;;;56.63;21.95;;;;;;;;;;5035094;28;20041;-81
2023/03/05 06:01:01;;;;;;;61.40;25.27;;;;;;;;;;5016494;28;20083;-81
2023/03/05 06:03:27;;;;;;;55.47;23.23;;;;;;;;;;5033992;28;20041;-82
2023/03/05 06:05:52;;;;;;;55.95;20.42;;;;;;;;;;5033317;28;20393;-80
2023/03/05 06:08:18;;;;;;;45.67;19.27;;;;;;;;;;5034961;28;20452;-81
2023/03/05 06:10:44;;;;;;;46.58;20.75;;;;;;;;;;5037893;28;20049;-79
2023/03/05 06:13:09;;;;;;;38.00;18.85;;;;;;;;;;5038802;28;20037;-80
2023/03/05 06:15:35;;;;;;;44.35;18.65;;;;;;;;;;5036766;28;20029;-80
2023/03/05 06:18:00;;;;;;;47.45;19.92;;;;;;;;;;5037367;28;20044;-80
2023/03/05 06:20:27;;;;;;;43.55;18.63;;;;;;;;;;5037424;28;20171;-81
2023/03/05 06:22:53;;;;;;;45.55;19.00;;;;;;;;;;5037190;28;20036;-80
2023/03/05 06:25:18;;;;;;;44.10;18.58;;;;;;;;;;5036183;28;20025;-80
2023/03/05 06:27:44;;;;;;;45.03;18.90;;;;;;;;;;5038143;28;20090;-81
2023/03/05 06:30:10;;;;;;;48.08;20.65;;;;;;;;;;5020225;28;20044;-81
2023/03/05 06:32:36;;;;;;;45.88;20.17;;;;;;;;;;5037765;28;20100;-81
2023/03/05 06:35:02;;;;;;;45.30;19.27;;;;;;;;;;5036844;28;20073;-83
2023/03/05 06:37:27;;;;;;;48.15;20.65;;;;;;;;;;5036923;28;20038;-81
2023/03/05 06:39:52;;;;;;;46.92;20.50;;;;;;;;;;5019845;28;20168;-81
2023/03/05 06:42:18;;;;;;;45.97;20.40;;;;;;;;;;5037516;28;20037;-81
2023/03/05 06:44:44;;;;;;;44.17;18.90;;;;;;;;;;5037231;28;20041;-81
2023/03/05 06:47:10;;;;;;;48.75;20.30;;;;;;;;;;5037535;28;20038;-81
2023/03/05 06:49:37;;;;;;;44.10;19.15;;;;;;;;;;5019893;28;20038;-82
2023/03/05 06:52:04;;;;;;;47.53;19.27;;;;;;;;;;5019394;28;20065;-83
2023/03/05 06:54:30;;;;;;;38.38;17.85;;;;;;;;;;5036600;28;20048;-81
2023/03/05 06:56:55;;;;;;;42.20;18.73;;;;;;;;;;5037342;28;20037;-80
2023/03/05 06:59:21;;;;;;;45.05;19.48;;;;;;;;;;5019085;28;20030;-81
2023/03/05 07:01:47;;;;;;;41.38;17.60;;;;;;;;;;5036365;28;20045;-81
2023/03/05 07:04:14;;;;;;;44.15;18.67;;;;;;;;;;5018560;28;20091;-81
2023/03/05 07:06:41;;;;;;;46.42;18.98;;;;;;;;;;5059219;22;20041;-84
2023/03/05 07:09:09;;;;;;;43.67;19.45;;;;;;;;;;5019078;28;20072;-85
2023/03/05 07:11:34;;;;;;;42.03;17.80;;;;;;;;;;5018469;28;20033;-83
2023/03/05 07:14:00;;;;;;;43.47;17.75;;;;;;;;;;5027301;28;20021;-82
2023/03/05 07:16:28;;;;;;;48.60;19.75;;;;;;;;;;5026466;28;20482;-85
2023/03/05 07:18:56;;;;;;;47.58;20.05;;;;;;;;;;5037531;28;20117;-86
2023/03/05 07:21:24;;;;;;;40.38;17.63;;;;;;;;;;5037212;28;20038;-85
2023/03/05 07:23:52;;;;;;;42.53;18.45;;;;;;;;;;5035613;28;20571;-86
2023/03/05 07:26:18;;;;;;;43.33;17.95;;;;;;;;;;5034355;28;20163;-84
2023/03/05 07:28:44;;;;;;;46.53;18.98;;;;;;;;;;5035572;28;20068;-87
2023/03/05 07:31:18;;;;;;;49.97;19.90;;;;;;;;;;5034196;28;20557;-85
2023/03/05 07:33:48;;;;;;;43.10;18.17;;;;;;;;;;5035016;28;20040;-86
2023/03/05 07:36:14;;;;;;;43.90;18.80;;;;;;;;;;5035409;28;20022;-84
2023/03/05 07:38:40;;;;;;;46.33;19.80;;;;;;;;;;5017369;28;20419;-87
2023/03/05 07:41:08;;;;;;;44.17;18.17;;;;;;;;;;5034628;28;20045;-83
2023/03/05 07:43:33;;;;;;;43.25;17.80;;;;;;;;;;5034449;28;20505;-87
2023/03/05 07:46:03;;;;;;;45.47;19.20;;;;;;;;;;5034285;28;20060;-86
2023/03/05 07:48:28;;;;;;;43.20;18.20;;;;;;;;;;5033234;28;20056;-86
2023/03/05 07:51:11;;;;;;;47.88;18.30;;;;;;;;;;5034758;28;20029;-86
2023/03/05 07:53:36;;;;;;;44.97;18.98;;;;;;;;;;5015567;28;20486;-85
2023/03/05 07:56:02;;;;;;;46.17;18.27;;;;;;;;;;5016073;28;20044;-87
2023/03/05 07:58:27;;;;;;;45.00;17.92;;;;;;;;;;5035583;28;20030;-88
2023/03/05 08:00:53;;;;;;;34.10;15.35;;;;;;;;;;5034739;28;20642;-87
2023/03/05 08:03:18;;;;;;;41.45;17.17;;;;;;;;;;5018720;28;20113;-87
2023/03/05 08:05:44;;;;;;;46.90;18.45;;;;;;;;;;5030881;28;20113;-84
2023/03/05 08:08:10;;;;;;;44.58;18.65;;;;;;;;;;5014441;28;20030;-85
2023/03/05 08:10:36;;;;;;;41.05;17.48;;;;;;;;;;5014896;28;20044;-85
2023/03/05 08:13:02;;;;;;;44.38;16.50;;;;;;;;;;5013028;28;20036;-85
2023/03/05 08:15:30;;;;;;;42.30;18.35;;;;;;;;;;5016913;28;20056;-86
2023/03/05 08:17:56;;;;;;;41.92;18.48;;;;;;;;;;5031991;28;20022;-85
2023/03/05 08:20:21;;;;;;;45.10;18.63;;;;;;;;;;5020495;28;20069;-84
2023/03/05 08:22:47;;;;;;;43.17;19.00;;;;;;;;;;5032448;28;20199;-83
2023/03/05 08:25:12;;;;;;;42.00;18.10;;;;;;;;;;5031764;28;20087;-83
2023/03/05 08:27:42;;;;;;;40.05;17.45;;;;;;;;;;5032986;28;20045;-84
2023/03/05 08:30:11;;;;;;;38.15;16.65;;;;;;;;;;5017582;28;20042;-85
2023/03/05 08:32:37;;;;;;;43.70;16.50;;;;;;;;;;5016290;28;20041;-83
2023/03/05 08:35:03;;;;;;;35.35;16.20;;;;;;;;;;5017448;28;20407;-85
2023/03/05 08:37:29;;;;;;;37.88;14.52;;;;;;;;;;5015156;28;20038;-85
2023/03/05 08:39:55;;;;;;;35.45;14.63;;;;;;;;;;5032345;28;20119;-84
2023/03/05 08:42:21;;;;;;;33.38;13.95;;;;;;;;;;5015657;28;20479;-86
2023/03/05 08:44:47;;;;;;;32.28;13.80;;;;;;;;;;5016517;28;20037;-85
2023/03/05 08:47:13;;;;;;;29.25;12.45;;;;;;;;;;5031293;28;20041;-84
2023/03/05 08:49:38;;;;;;;24.45;11.50;;;;;;;;;;5015624;28;20029;-83
2023/03/05 08:52:04;;;;;;;23.90;10.70;;;;;;;;;;5026065;28;20034;-83
2023/03/05 08:54:29;;;;;;;27.30;11.13;;;;;;;;;;5019444;28;20038;-83
2023/03/05 08:56:55;;;;;;;23.10;10.40;;;;;;;;;;5019508;28;20185;-87
2023/03/05 08:59:20;;;;;;;23.42;10.25;;;;;;;;;;5019070;28;20034;-84
2023/03/05 09:01:46;;;;;;;23.65;10.10;;;;;;;;;;5019488;28;20064;-83
2023/03/05 09:04:12;;;;;;;26.70;10.75;;;;;;;;;;5017568;28;20391;-85
2023/03/05 09:06:39;;;;;;;26.88;11.25;;;;;;;;;;5018351;28;20064;-85
2023/03/05 09:09:08;;;;;;;26.83;10.70;;;;;;;;;;5019506;28;20030;-86
2023/03/05 09:11:35;;;;;;;24.42;11.05;;;;;;;;;;5030189;28;20078;-85
2023/03/05 09:14:03;;;;;;;26.60;11.70;;;;;;;;;;5017902;28;20037;-85
2023/03/05 09:16:28;;;;;;;25.10;11.00;;;;;;;;;;5016600;28;20117;-85
2023/03/05 09:18:53;;;;;;;25.48;11.07;;;;;;;;;;5016508;28;20632;-85
2023/03/05 09:21:19;;;;;;;25.55;10.93;;;;;;;;;;5034045;28;20102;-83
2023/03/05 09:23:48;;;;;;;24.45;10.35;;;;;;;;;;5025390;28;20041;-85
2023/03/05 09:26:17;;;;;;;25.95;10.95;;;;;;;;;;5018720;28;20073;-87
2023/03/05 09:28:43;;;;;;;25.95;10.88;;;;;;;;;;5018212;28;20048;-83
2023/03/05 09:31:10;;;;;;;24.20;10.48;;;;;;;;;;5011743;28;20038;-83
2023/03/05 09:33:36;;;;;;;26.08;11.40;;;;;;;;;;5011119;28;20038;-85
2023/03/05 09:36:02;;;;;;;26.23;11.00;;;;;;;;;;5026474;28;20061;-85
2023/03/05 09:38:28;;;;;;;25.50;10.98;;;;;;;;;;5016807;28;20629;-85
2023/03/05 09:41:06;;;;;;;26.20;11.60;;;;;;;;;;5017378;28;20037;-86
2023/03/05 09:43:46;;;;;;;25.58;11.38;;;;;;;;;;5019303;28;20517;-85
2023/03/05 09:46:17;;;;;;;29.23;11.82;;;;;;;;;;5020811;28;20509;-87
2023/03/05 09:49:13;;;;;;;25.77;11.48;;;;;;;;;;5021372;28;20046;-85
2023/03/05 09:51:40;;;;;;;24.98;11.38;;;;;;;;;;5035859;28;20084;-84
2023/03/05 09:54:11;;;;;;;25.25;11.20;;;;;;;;;;5038236;28;20038;-84
2023/03/05 09:56:50;;;;;;;25.50;11.20;;;;;;;;;;5022551;28;20034;-85
2023/03/05 09:59:36;;;;;;;28.65;11.02;;;;;;;;;;5021152;28;20034;-87
2023/03/05 10:02:16;;;;;;;27.55;11.27;;;;;;;;;;5021399;28;20062;-86
2023/03/05 10:04:51;;;;;;;29.33;11.70;;;;;;;;;;5035072;28;20033;-86
2023/03/05 10:07:23;;;;;;;30.25;11.73;;;;;;;;;;5020120;28;20050;-86
2023/03/05 10:09:51;;;;;;;27.48;12.15;;;;;;;;;;5018321;28;20053;-85
2023/03/05 10:12:42;;;;;;;27.50;11.55;;;;;;;;;;5018898;28;20042;-86
2023/03/05 10:15:12;;;;;;;24.95;10.93;;;;;;;;;;5032896;28;20091;-85
2023/03/05 10:17:54;;;;;;;29.92;12.05;;;;;;;;;;5018080;28;20046;-86
2023/03/05 10:20:37;;;;;;;26.80;10.98;;;;;;;;;;5016622;28;20037;-86
2023/03/05 10:23:14;;;;;;;25.83;11.18;;;;;;;;;;5016965;28;20517;-85
2023/03/05 10:25:55;;;;;;;23.88;11.18;;;;;;;;;;5020878;28;20025;-84
2023/03/05 10:28:39;;;;;;;25.45;11.13;;;;;;;;;;5020322;28;20050;-84
2023/03/05 10:31:23;;;;;;;24.13;10.65;;;;;;;;;;5015599;28;20551;-84
2023/03/05 10:34:07;;;;;;;23.25;10.68;;;;;;;;;;5017111;28;20056;-81
2023/03/05 10:37:03;;;;;;;25.85;10.77;;;;;;;;;;5032897;28;20061;-84
2023/03/05 10:39:58;;;;;;;26.67;11.38;;;;;;;;;;5020988;28;20108;-86
2023/03/05 10:42:29;;;;;;;;;;;;;;;;;;5020189;28;20498;-83
2023/03/05 10:44:58;;;;;;;22.20;9.68;;;;;;;;;;5016450;28;19967;-85
2023/03/05 10:47:42;;;;;;;19.58;9.73;;;;;;;;;;5031493;28;20501;-85
2023/03/05 10:50:17;;;;;;;20.88;9.43;;;;;;;;;;5016581;28;20128;-84
2023/03/05 10:52:45;;;;;;;21.80;11.07;;;;;;;;;;5029473;28;20383;-85
2023/03/05 10:55:17;;;;;;;19.25;9.95;;;;;;;;;;5033907;28;20136;-86
2023/03/05 10:57:43;;;;;;;21.02;10.32;;;;;;;;;;5020174;28;20064;-89
2023/03/05 11:00:22;;;;;;;22.58;10.30;;;;;;;;;;5019797;28;20101;-86
2023/03/05 11:02:59;;;;;;;22.25;10.85;;;;;;;;;;5034468;28;20470;-86
2023/03/05 11:05:37;;;;;;;20.73;10.13;;;;;;;;;;5019589;28;20045;-86
2023/03/05 11:08:18;;;;;;;26.35;10.35;;;;;;;;;;5019681;28;20046;-83
2023/03/05 11:10:44;;;;;;;18.45;9.55;;;;;;;;;;5018184;28;20406;-84
2023/03/05 11:13:26;;;;;;;21.42;10.05;;;;;;;;;;5018699;28;20108;-85
2023/03/05 11:16:03;;;;;;;28.43;10.70;;;;;;;;;;5018162;28;20089;-85
2023/03/05 11:18:33;;;;;;;21.27;10.15;;;;;;;;;;5017332;28;20038;-87
2023/03/05 11:21:10;;;;;;;21.65;9.98;;;;;;;;;;5018399;28;20037;-84
2023/03/05 11:23:37;;;;;;;21.98;10.05;;;;;;;;;;5031629;28;20087;-87
2023/03/05 11:26:22;;;;;;;21.10;10.43;;;;;;;;;;5015817;28;20034;-86
2023/03/05 11:28:50;;;;;;;20.60;9.60;;;;;;;;;;5015764;28;20061;-84
2023/03/05 11:31:17;;;;;;;17.67;9.23;;;;;;;;;;5025313;28;20045;-84
2023/03/05 11:34:04;;;;;;;30.45;10.55;;;;;;;;;;5014882;28;20088;-83
2023/03/05 11:37:04;;;;;;;24.50;12.65;;;;;;;;;;4994453;28;20163;-85
2023/03/05 11:39:34;;;;;;;22.92;11.15;;;;;;;;;;4993317;28;20490;-86
2023/03/05 11:42:02;;;;;;;27.33;10.98;;;;;;;;;;5014992;28;20532;-84
2023/03/05 11:44:33;;;;;;;24.65;11.15;;;;;;;;;;5014553;28;20026;-85
2023/03/05 11:47:05;;;;;;;25.90;11.52;;;;;;;;;;4997095;28;20062;-84
2023/03/05 11:49:31;;;;;;;23.88;11.57;;;;;;;;;;5014979;28;20093;-85
2023/03/05 11:52:12;;;;;;;25.23;11.32;;;;;;;;;;5013692;28;20125;-86
2023/03/05 11:55:13;;;;;;;21.42;10.65;;;;;;;;;;5014840;28;20026;-86
2023/03/05 11:57:44;;;;;;;23.30;10.45;;;;;;;;;;5014069;28;20498;-85
2023/03/05 12:00:17;;;;;;;23.90;10.75;;;;;;;;;;5014840;28;20080;-85
2023/03/05 12:02:47;;;;;;;24.40;11.50;;;;;;;;;;5014077;28;20040;-83
2023/03/05 12:05:14;;;;;;;25.63;11.38;;;;;;;;;;5014432;28;20057;-83
2023/03/05 12:07:43;;;;;;;25.33;11.13;;;;;;;;;;5023742;28;20130;-86
2023/03/05 12:10:18;;;;;;;25.95;12.05;;;;;;;;;;5017071;28;20044;-86
2023/03/05 12:13:00;;;;;;;29.00;15.68;;;;;;;;;;5016626;28;20066;-84
2023/03/05 12:15:45;;;;;;;27.92;12.57;;;;;;;;;;5016329;28;20037;-85
2023/03/05 12:18:19;;;;;;;25.52;11.25;;;;;;;;;;5018745;28;20536;-86
2023/03/05 12:21:03;;;;;;;21.98;10.82;;;;;;;;;;5017893;28;20560;-86
2023/03/05 12:23:42;;;;;;;24.65;11.85;;;;;;;;;;5017396;28;20136;-86
2023/03/05 12:26:07;;;;;;;22.15;11.23;;;;;;;;;;5016786;28;20076;-86
2023/03/05 12:28:33;;;;;;;22.75;11.95;;;;;;;;;;5018024;28;20488;-85
2023/03/05 12:31:27;;;;;;;27.10;13.20;;;;;;;;;;5015900;28;20038;-87
2023/03/05 12:33:53;;;;;;;26.83;13.50;;;;;;;;;;5025425;28;20042;-87
2023/03/05 12:36:18;;;;;;;31.88;14.65;;;;;;;;;;5017107;28;20538;-85
2023/03/05 12:38:51;;;;;;;24.52;12.10;;;;;;;;;;5031328;28;20072;-84
2023/03/05 12:41:23;;;;;;;24.67;11.93;;;;;;;;;;4997739;28;20037;-86
2023/03/05 12:44:03;;;;;;;29.10;12.57;;;;;;;;;;5020836;28;20500;-86
2023/03/05 12:46:31;;;;;;;23.58;11.50;;;;;;;;;;5018337;28;20068;-86
2023/03/05 12:48:58;;;;;;;24.90;11.60;;;;;;;;;;5018213;28;20140;-86
2023/03/05 12:51:36;;;;;;;21.60;10.50;;;;;;;;;;5033929;28;20033;-84
2023/03/05 12:54:31;;;;;;;24.13;11.00;;;;;;;;;;5018087;28;20033;-83
2023/03/05 12:56:59;;;;;;;24.20;11.10;;;;;;;;;;5026252;28;20141;-85
2023/03/05 12:59:38;;;;;;;23.75;11.52;;;;;;;;;;5017964;28;20091;-85
2023/03/05 13:02:32;;;;;;;25.17;11.65;;;;;;;;;;5000627;28;20026;-87
2023/03/05 13:05:02;;;;;;;22.13;11.25;;;;;;;;;;5010326;28;20046;-83
2023/03/05 13:07:27;;;;;;;22.67;11.18;;;;;;;;;;5048330;23;20460;-84
2023/03/05 13:09:56;;;;;;;22.52;11.00;;;;;;;;;;5042883;28;20033;-84
2023/03/05 13:12:23;;;;;;;20.73;10.98;;;;;;;;;;5041095;28;20029;-85
2023/03/05 13:15:05;;;;;;;21.52;10.32;;;;;;;;;;5024335;28;20254;-84
2023/03/05 13:17:43;;;;;;;22.67;10.60;;;;;;;;;;5040919;28;20060;-84
2023/03/05 13:20:29;;;;;;;21.52;10.45;;;;;;;;;;5040433;28;20041;-84
2023/03/05 13:23:03;;;;;;;20.15;9.27;;;;;;;;;;5040371;28;20076;-83
2023/03/05 13:25:29;;;;;;;21.75;10.40;;;;;;;;;;5041447;28;20060;-85
2023/03/05 13:28:13;;;;;;;21.98;10.30;;;;;;;;;;5039536;28;20431;-84
2023/03/05 13:30:44;;;;;;;21.17;10.15;;;;;;;;;;5038219;28;20485;-84
2023/03/05 13:33:17;;;;;;;20.77;10.45;;;;;;;;;;5038662;28;20033;-84
2023/03/05 13:35:46;;;;;;;21.90;9.70;;;;;;;;;;5040102;28;20033;-84
2023/03/05 13:38:27;;;;;;;21.25;10.40;;;;;;;;;;5022744;28;20124;-84
2023/03/05 13:41:03;;;;;;;19.92;10.55;;;;;;;;;;5039730;28;20093;-85
2023/03/05 13:43:29;;;;;;;21.17;10.43;;;;;;;;;;5039853;28;20080;-84
2023/03/05 13:45:58;;;;;;;25.52;10.55;;;;;;;;;;5035837;28;20733;-84
2023/03/05 13:48:25;;;;;;;21.13;9.60;;;;;;;;;;5038010;28;20037;-85
2023/03/05 13:50:58;;;;;;;21.70;10.13;;;;;;;;;;5021069;28;20021;-83
2023/03/05 13:53:30;;;;;;;18.65;9.45;;;;;;;;;;5037762;28;20029;-83
2023/03/05 13:56:04;;;;;;;19.00;9.90;;;;;;;;;;5036113;28;20029;-84
2023/03/05 13:58:52;;;;;;;20.98;10.40;;;;;;;;;;5037666;28;20044;-84
2023/03/05 14:01:24;;;;;;;21.92;10.45;;;;;;;;;;5038505;28;20034;-85
2023/03/05 14:03:52;;;;;;;19.60;9.90;;;;;;;;;;5038197;28;20041;-84
2023/03/05 14:06:20;;;;;;;23.05;10.98;;;;;;;;;;5036712;28;20183;-84
2023/03/05 14:08:50;;;;;;;22.98;10.43;;;;;;;;;;5037203;28;20104;-83
2023/03/05 14:11:17;;;;;;;21.35;9.80;;;;;;;;;;5034651;28;20086;-85
2023/03/05 14:13:44;;;;;;;22.75;10.95;;;;;;;;;;5035427;28;20478;-82
2023/03/05 14:16:12;;;;;;;20.35;10.27;;;;;;;;;;5035831;28;20029;-83
2023/03/05 14:18:51;;;;;;;23.67;10.68;;;;;;;;;;5037399;28;20041;-83
2023/03/05 14:21:16;;;;;;;20.58;10.20;;;;;;;;;;5037273;28;20564;-83
2023/03/05 14:23:46;;;;;;;22.30;10.65;;;;;;;;;;5036560;28;20041;-83
2023/03/05 14:26:33;;;;;;;19.70;9.52;;;;;;;;;;5018909;28;20033;-83
2023/03/05 14:29:00;;;;;;;22.65;10.13;;;;;;;;;;5037649;28;20040;-83
2023/03/05 14:31:27;;;;;;;23.25;10.07;;;;;;;;;;5022739;28;20029;-83